createdAt,value
2018-09-16T00:00:31.225Z,99926.77
2018-09-16T00:03:01.427Z,99924.44
2018-09-16T00:05:29.872Z,99929.38
2018-09-16T00:07:58.347Z,99924.54
2018-09-16T00:10:26.853Z,99924.54
2018-09-16T00:12:55.755Z,99917.81
2018-09-16T00:15:24.621Z,99923.78
2018-09-16T00:17:53.424Z,99917.75
2018-09-16T00:20:21.871Z,99917.43
2018-09-16T00:22:50.659Z,99912.97
2018-09-16T00:25:19.460Z,99915.16
2018-09-16T00:27:48.868Z,99917.27
2018-09-16T00:30:17.306Z,99920.56
2018-09-16T00:32:47.571Z,99924.45
2018-09-16T00:35:16.930Z,99916.41
2018-09-16T00:37:45.971Z,99917.96
2018-09-16T00:40:16.047Z,99919.85
2018-09-16T00:42:45.459Z,99918.15
2018-09-16T00:45:14.340Z,99916.67
2018-09-16T00:47:42.829Z,99918.58
2018-09-16T00:50:11.330Z,99918.06
2018-09-16T00:52:40.143Z,99915.46
2018-09-16T00:55:12.058Z,99909.00
2018-09-16T00:57:40.739Z,99906.17
2018-09-16T01:00:09.760Z,99900.85
2018-09-16T01:02:39.151Z,99907.58
2018-09-16T01:05:08.383Z,99902.47
2018-09-16T01:07:36.815Z,99905.55
2018-09-16T01:10:05.341Z,99902.69
2018-09-16T01:12:33.807Z,99901.36
2018-09-16T01:15:02.663Z,99904.02
2018-09-16T01:17:31.357Z,99906.55
2018-09-16T01:20:00.515Z,99905.14
2018-09-16T01:22:30.492Z,99910.20
2018-09-16T01:24:58.987Z,99907.67
2018-09-16T01:27:27.438Z,99897.81
2018-09-16T01:29:55.916Z,99906.38
2018-09-16T01:32:24.980Z,99904.47
2018-09-16T01:34:54.455Z,99898.69
2018-09-16T01:37:28.396Z,99901.39
2018-09-16T01:39:57.088Z,99902.14
2018-09-16T01:42:25.578Z,99899.10
2018-09-16T01:44:54.845Z,99900.31
2018-09-16T01:47:23.931Z,99896.04
2018-09-16T01:49:53.684Z,99891.50
2018-09-16T01:52:23.160Z,99891.27
2018-09-16T01:54:52.013Z,99888.52
2018-09-16T01:57:22.015Z,99887.30
2018-09-16T01:59:50.476Z,99888.81
2018-09-16T02:02:18.929Z,99883.98
2018-09-16T02:04:52.328Z,99890.54
2018-09-16T02:07:21.174Z,99881.14
2018-09-16T02:09:49.610Z,99874.95
2018-09-16T02:12:18.052Z,99874.06
2018-09-16T02:14:46.744Z,99867.19
2018-09-16T02:17:15.619Z,99862.91
2018-09-16T02:19:45.500Z,99870.17
2018-09-16T02:22:14.416Z,99866.98
2018-09-16T02:24:42.877Z,99866.68
2018-09-16T02:27:11.323Z,99861.69
2018-09-16T02:29:40.227Z,99863.18
2018-09-16T02:32:10.327Z,99859.34
2018-09-16T02:34:38.791Z,99854.91
2018-09-16T02:37:07.301Z,99856.64
2018-09-16T02:39:36.587Z,99850.98
2018-09-16T02:42:05.273Z,99847.38
2018-09-16T02:44:34.700Z,99845.97
2018-09-16T02:47:03.568Z,99841.06
2018-09-16T02:49:33.145Z,99850.55
2018-09-16T02:52:01.650Z,99849.52
2018-09-16T02:54:30.076Z,99844.27
2018-09-16T02:56:58.528Z,99843.84
2018-09-16T02:59:26.963Z,99839.65
2018-09-16T03:01:55.843Z,99836.32
2018-09-16T03:04:24.588Z,99842.05
2018-09-16T03:06:53.421Z,99836.20
2018-09-16T03:09:21.867Z,99839.82
2018-09-16T03:11:50.446Z,99834.80
2018-09-16T03:14:19.683Z,99837.22
2018-09-16T03:16:50.400Z,99838.24
2018-09-16T03:19:19.223Z,99834.44
2018-09-16T03:21:47.951Z,99832.65
2018-09-16T03:24:16.750Z,99831.84
2018-09-16T03:26:46.215Z,99828.73
2018-09-16T03:29:14.653Z,99830.69
2018-09-16T03:31:43.111Z,99830.36
2018-09-16T03:34:12.563Z,99827.79
2018-09-16T03:36:41.078Z,99828.05
2018-09-16T03:39:10.648Z,99825.45
2018-09-16T03:41:39.888Z,99829.44
2018-09-16T03:44:08.632Z,99821.55
2018-09-16T03:46:38.410Z,99823.60
2018-09-16T03:49:07.135Z,99825.29
2018-09-16T03:51:35.895Z,99822.58
2018-09-16T03:54:04.973Z,99820.02
2018-09-16T03:56:37.941Z,99817.06
2018-09-16T03:59:07.191Z,99814.09
2018-09-16T04:01:37.014Z,99815.87
2018-09-16T04:04:05.498Z,99809.11
2018-09-16T04:06:34.392Z,99813.62
2018-09-16T04:09:02.914Z,99819.17
2018-09-16T04:11:31.456Z,99810.87
2018-09-16T04:14:00.446Z,99812.50
2018-09-16T04:16:30.027Z,99815.12
2018-09-16T04:19:00.147Z,99809.38
2018-09-16T04:21:28.806Z,99809.30
2018-09-16T04:23:58.670Z,99813.45
2018-09-16T04:26:27.358Z,99812.42
2018-09-16T04:28:58.146Z,99815.37
2018-09-16T04:31:27.594Z,99814.82
2018-09-16T04:33:56.259Z,99814.05
2018-09-16T04:36:24.683Z,99816.43
2018-09-16T04:38:54.420Z,99813.86
2018-09-16T04:41:23.883Z,99813.86
2018-09-16T04:43:52.585Z,99820.33
2018-09-16T04:46:21.467Z,99825.06
2018-09-16T04:48:50.765Z,99824.67
2018-09-16T04:51:20.149Z,99824.49
2018-09-16T04:53:49.632Z,99830.02
2018-09-16T04:56:19.805Z,99829.50
2018-09-16T04:58:49.487Z,99831.28
2018-09-16T05:01:17.932Z,99829.34
2018-09-16T05:03:46.478Z,99832.19
2018-09-16T05:06:15.252Z,99829.31
2018-09-16T05:08:44.657Z,99831.75
2018-09-16T05:11:13.856Z,99814.55
2018-09-16T05:13:42.753Z,99825.06
2018-09-16T05:16:12.450Z,99824.83
2018-09-16T05:18:42.358Z,99829.65
2018-09-16T05:21:11.045Z,99817.55
2018-09-16T05:23:40.153Z,99817.22
2018-09-16T05:26:09.016Z,99821.38
2018-09-16T05:28:38.275Z,99827.24
2018-09-16T05:31:06.748Z,99819.52
2018-09-16T05:33:35.991Z,99822.00
2018-09-16T05:36:04.531Z,99821.62
2018-09-16T05:38:32.979Z,99829.94
2018-09-16T05:41:02.008Z,99827.48
2018-09-16T05:43:31.029Z,99826.47
2018-09-16T05:45:59.671Z,99826.57
2018-09-16T05:48:28.113Z,99833.08
2018-09-16T05:50:56.907Z,99828.72
2018-09-16T05:53:26.484Z,99822.14
2018-09-16T05:55:55.025Z,99825.87
2018-09-16T05:58:23.465Z,99818.70
2018-09-16T06:00:53.036Z,99822.14
2018-09-16T06:03:22.219Z,99822.02
2018-09-16T06:05:51.186Z,99827.47
2018-09-16T06:08:20.460Z,99833.94
2018-09-16T06:10:49.666Z,99824.74
2018-09-16T06:13:18.335Z,99825.14
2018-09-16T06:15:47.061Z,99826.86
2018-09-16T06:18:16.375Z,99829.58
2018-09-16T06:20:45.497Z,99835.23
2018-09-16T06:23:15.074Z,99834.47
2018-09-16T06:25:43.585Z,99835.19
2018-09-16T06:28:12.140Z,99835.73
2018-09-16T06:30:41.497Z,99841.28
2018-09-16T06:33:11.084Z,99838.08
2018-09-16T06:35:40.035Z,99839.63
2018-09-16T06:38:09.723Z,99847.02
2018-09-16T06:40:38.206Z,99840.97
2018-09-16T06:43:07.100Z,99845.96
2018-09-16T06:45:36.448Z,99844.84
2018-09-16T06:48:05.369Z,99846.70
2018-09-16T06:50:35.357Z,99845.86
2018-09-16T06:53:04.768Z,99841.30
2018-09-16T06:55:33.279Z,99842.58
2018-09-16T06:58:03.037Z,99840.89
2018-09-16T07:00:32.597Z,99837.27
2018-09-16T07:03:01.545Z,99840.10
2018-09-16T07:05:31.825Z,99826.42
2018-09-16T07:08:02.414Z,99834.56
2018-09-16T07:10:32.092Z,99841.94
2018-09-16T07:13:01.243Z,99846.66
2018-09-16T07:15:32.305Z,99843.96
2018-09-16T07:18:01.126Z,99849.79
2018-09-16T07:20:30.889Z,99846.31
2018-09-16T07:23:01.792Z,99849.44
2018-09-16T07:25:31.187Z,99847.08
2018-09-16T07:27:59.655Z,99842.70
2018-09-16T07:30:28.540Z,99833.40
2018-09-16T07:32:57.029Z,99842.59
2018-09-16T07:35:25.501Z,99833.19
2018-09-16T07:37:53.982Z,99830.78
2018-09-16T07:40:22.590Z,99827.72
2018-09-16T07:42:51.137Z,99828.64
2018-09-16T07:45:19.598Z,99828.75
2018-09-16T07:47:49.554Z,99828.98
2018-09-16T07:50:18.400Z,99816.41
2018-09-16T07:52:47.906Z,99817.11
2018-09-16T07:55:16.893Z,99825.25
2018-09-16T07:57:45.356Z,99823.67
2018-09-16T08:00:17.216Z,99826.80
2018-09-16T08:02:46.628Z,99822.52
2018-09-16T08:05:19.068Z,99818.94
2018-09-16T08:07:48.732Z,99826.18
2018-09-16T08:10:17.461Z,99822.91
2018-09-16T08:12:46.756Z,99816.66
2018-09-16T08:15:15.333Z,99814.22
2018-09-16T08:17:43.774Z,99820.75
2018-09-16T08:20:12.253Z,99817.14
2018-09-16T08:22:41.064Z,99818.08
2018-09-16T08:25:10.037Z,99819.63
2018-09-16T08:27:38.490Z,99819.55
2018-09-16T08:30:08.897Z,99817.03
2018-09-16T08:32:37.393Z,99814.52
2018-09-16T08:35:05.942Z,99813.17
2018-09-16T08:37:36.004Z,99814.89
2018-09-16T08:40:06.110Z,99809.52
2018-09-16T08:42:34.781Z,99814.47
2018-09-16T08:45:04.175Z,99806.44
2018-09-16T08:47:33.393Z,99812.70
2018-09-16T08:50:02.420Z,99812.09
2018-09-16T08:52:30.953Z,99810.37
2018-09-16T08:55:00.427Z,99800.88
2018-09-16T08:57:29.283Z,99803.22
2018-09-16T08:59:57.796Z,99801.33
2018-09-16T09:02:27.290Z,99801.41
2018-09-16T09:04:56.065Z,99795.31
2018-09-16T09:07:26.533Z,99798.70
2018-09-16T09:09:56.266Z,99793.15
2018-09-16T09:12:25.835Z,99789.47
2018-09-16T09:14:55.153Z,99797.63
2018-09-16T09:17:24.539Z,99793.89
2018-09-16T09:19:53.444Z,99796.45
2018-09-16T09:22:23.727Z,99791.29
2018-09-16T09:24:53.095Z,99797.24
2018-09-16T09:27:21.821Z,99794.41
2018-09-16T09:29:51.794Z,99794.97
2018-09-16T09:32:20.638Z,99797.45
2018-09-16T09:34:50.100Z,99793.23
2018-09-16T09:37:19.353Z,99795.48
2018-09-16T09:39:48.554Z,99788.64
2018-09-16T09:42:18.086Z,99786.30
2018-09-16T09:44:46.762Z,99790.95
2018-09-16T09:47:15.872Z,99778.80
2018-09-16T09:49:45.462Z,99773.05
2018-09-16T09:52:14.773Z,99774.69
2018-09-16T09:54:43.538Z,99768.38
2018-09-16T09:57:13.466Z,99763.09
2018-09-16T09:59:45.495Z,99765.25
2018-09-16T10:02:14.208Z,99762.91
2018-09-16T10:04:43.058Z,99764.50
2018-09-16T10:07:12.397Z,99758.86
2018-09-16T10:09:42.146Z,99751.84
2018-09-16T10:12:11.507Z,99755.03
2018-09-16T10:14:41.610Z,99755.33
2018-09-16T10:17:10.604Z,99755.51
2018-09-16T10:19:40.230Z,99744.14
2018-09-16T10:22:08.695Z,99742.62
2018-09-16T10:24:38.184Z,99743.55
2018-09-16T10:27:07.781Z,99732.95
2018-09-16T10:29:37.448Z,99739.94
2018-09-16T10:32:06.169Z,99737.08
2018-09-16T10:34:35.492Z,99728.63
2018-09-16T10:37:04.833Z,99730.89
2018-09-16T10:39:33.517Z,99726.12
2018-09-16T10:42:02.516Z,99725.82
2018-09-16T10:44:32.750Z,99722.34
2018-09-16T10:47:02.245Z,99719.16
2018-09-16T10:49:30.736Z,99710.20
2018-09-16T10:51:59.259Z,99705.38
2018-09-16T10:54:29.914Z,99706.80
2018-09-16T10:56:59.548Z,99699.41
2018-09-16T10:59:28.784Z,99708.47
2018-09-16T11:01:58.938Z,99698.97
2018-09-16T11:04:28.286Z,99696.70
2018-09-16T11:06:57.204Z,99692.57
2018-09-16T11:09:26.768Z,99684.06
2018-09-16T11:11:55.605Z,99685.75
2018-09-16T11:14:25.200Z,99685.56
2018-09-16T11:16:54.230Z,99678.44
2018-09-16T11:19:22.766Z,99684.78
2018-09-16T11:21:52.264Z,99674.05
2018-09-16T11:24:20.800Z,99675.20
2018-09-16T11:26:49.776Z,99675.56
2018-09-16T11:29:19.423Z,99677.84
2018-09-16T11:31:49.326Z,99672.20
2018-09-16T11:34:17.812Z,99665.49
2018-09-16T11:36:46.278Z,99658.37
2018-09-16T11:39:14.971Z,99662.60
2018-09-16T11:41:43.691Z,99643.61
2018-09-16T11:44:12.497Z,99647.23
2018-09-16T11:46:41.301Z,99640.86
2018-09-16T11:49:10.681Z,99641.12
2018-09-16T11:51:40.027Z,99637.85
2018-09-16T11:54:10.072Z,99635.80
2018-09-16T11:56:38.873Z,99638.41
2018-09-16T11:59:08.735Z,99628.89
2018-09-16T12:01:37.637Z,99631.19
2018-09-16T12:04:06.379Z,99620.81
2018-09-16T12:06:35.787Z,99621.88
2018-09-16T12:09:05.141Z,99610.71
2018-09-16T12:11:34.054Z,99611.09
2018-09-16T12:14:02.667Z,99619.20
2018-09-16T12:16:31.127Z,99606.50
2018-09-16T12:19:00.595Z,99603.98
2018-09-16T12:21:30.042Z,99610.52
2018-09-16T12:23:59.811Z,99596.73
2018-09-16T12:26:28.322Z,99593.66
2018-09-16T12:28:56.795Z,99591.70
2018-09-16T12:31:25.241Z,99589.64
2018-09-16T12:33:53.717Z,99588.13
2018-09-16T12:36:23.144Z,99594.14
2018-09-16T12:38:52.620Z,99587.55
2018-09-16T12:41:21.993Z,99586.79
2018-09-16T12:43:51.865Z,99571.44
2018-09-16T12:46:20.563Z,99586.88
2018-09-16T12:48:49.045Z,99584.19
2018-09-16T12:51:18.154Z,99576.51
2018-09-16T12:53:47.175Z,99584.38
2018-09-16T12:56:15.980Z,99588.48
2018-09-16T12:58:44.836Z,99588.30
2018-09-16T13:01:14.060Z,99582.48
2018-09-16T13:03:43.446Z,99574.45
2018-09-16T13:06:13.146Z,99571.97
2018-09-16T13:08:42.142Z,99573.63
2018-09-16T13:11:10.744Z,99570.20
2018-09-16T13:13:44.126Z,99563.47
2018-09-16T13:16:14.571Z,99557.45
2018-09-16T13:18:43.475Z,99551.13
2018-09-16T13:21:12.196Z,99555.34
2018-09-16T13:23:41.571Z,99551.58
2018-09-16T13:26:10.631Z,99553.41
2018-09-16T13:28:39.346Z,99549.80
2018-09-16T13:31:08.295Z,99548.61
2018-09-16T13:33:38.384Z,99543.87
2018-09-16T13:36:17.037Z,99549.59
2018-09-16T13:38:46.701Z,99547.92
2018-09-16T13:41:15.310Z,99547.58
2018-09-16T13:43:44.249Z,99544.27
2018-09-16T13:46:14.468Z,99527.73
2018-09-16T13:48:43.372Z,99534.28
2018-09-16T13:51:12.584Z,99531.28
2018-09-16T13:53:41.109Z,99518.17
2018-09-16T13:56:09.896Z,99513.10
2018-09-16T13:58:38.705Z,99511.34
2018-09-16T14:01:07.443Z,99509.86
2018-09-16T14:03:39.773Z,99501.67
2018-09-16T14:06:09.079Z,99496.37
2018-09-16T14:08:38.255Z,99492.16
2018-09-16T14:11:08.549Z,99488.20
2018-09-16T14:13:37.041Z,99480.95
2018-09-16T14:16:08.891Z,99475.51
2018-09-16T14:18:37.716Z,99475.23
2018-09-16T14:21:06.684Z,99469.30
2018-09-16T14:23:37.039Z,99471.00
2018-09-16T14:26:05.914Z,99471.83
2018-09-16T14:28:34.609Z,99465.53
2018-09-16T14:31:04.485Z,99463.53
2018-09-16T14:33:33.259Z,99456.44
2018-09-16T14:36:02.644Z,99455.35
2018-09-16T14:38:31.612Z,99443.75
2018-09-16T14:41:01.402Z,99440.67
2018-09-16T14:43:29.902Z,99438.86
2018-09-16T14:46:00.021Z,99441.58
2018-09-16T14:48:29.245Z,99444.83
2018-09-16T14:50:57.708Z,99446.06
2018-09-16T14:53:28.216Z,99437.66
2018-09-16T14:55:58.166Z,99439.21
2018-09-16T14:58:30.335Z,99435.63
2018-09-16T15:00:59.058Z,99436.47
2018-09-16T15:03:27.871Z,99427.39
2018-09-16T15:05:57.440Z,99432.27
2018-09-16T15:08:25.911Z,99438.77
2018-09-16T15:10:54.358Z,99430.08
2018-09-16T15:13:23.740Z,99427.62
2018-09-16T15:15:52.166Z,99421.17
2018-09-16T15:18:20.800Z,99426.74
2018-09-16T15:20:49.256Z,99420.59
2018-09-16T15:23:19.493Z,99420.11
2018-09-16T15:25:48.680Z,99417.59
2018-09-16T15:28:17.417Z,99416.64
2018-09-16T15:30:47.524Z,99417.52
2018-09-16T15:33:16.796Z,99418.83
2018-09-16T15:35:45.380Z,99412.74
2018-09-16T15:38:13.864Z,99409.44
2018-09-16T15:40:43.856Z,99415.55
2018-09-16T15:43:12.358Z,99407.78
2018-09-16T15:45:41.540Z,99412.50
2018-09-16T15:48:11.002Z,99409.54
2018-09-16T15:50:39.464Z,99408.42
2018-09-16T15:53:09.519Z,99395.88
2018-09-16T15:55:38.339Z,99404.08
2018-09-16T15:58:07.721Z,99394.65
2018-09-16T16:00:37.413Z,99392.72
2018-09-16T16:03:06.257Z,99395.75
2018-09-16T16:05:34.826Z,99393.97
2018-09-16T16:08:03.368Z,99393.71
2018-09-16T16:10:32.375Z,99394.39
2018-09-16T16:13:00.797Z,99390.08
2018-09-16T16:15:29.884Z,99399.27
2018-09-16T16:17:58.970Z,99386.98
2018-09-16T16:20:28.926Z,99386.23
2018-09-16T16:22:58.621Z,99387.59
2018-09-16T16:25:27.836Z,99386.23
2018-09-16T16:27:58.368Z,99395.17
2018-09-16T16:30:28.789Z,99401.05
2018-09-16T16:33:00.246Z,99406.20
2018-09-16T16:35:29.488Z,99399.79
2018-09-16T16:37:59.735Z,99399.17
2018-09-16T16:40:28.234Z,99402.41
2018-09-16T16:42:56.682Z,99397.98
2018-09-16T16:45:25.178Z,99402.73
2018-09-16T16:47:54.489Z,99399.18
2018-09-16T16:50:28.076Z,99402.75
2018-09-16T16:52:57.218Z,99402.56
2018-09-16T16:55:26.719Z,99401.87
2018-09-16T16:57:56.747Z,99399.34
2018-09-16T17:00:25.370Z,99396.30
2018-09-16T17:02:54.756Z,99395.06
2018-09-16T17:05:23.268Z,99394.05
2018-09-16T17:07:51.787Z,99396.98
2018-09-16T17:10:21.663Z,99407.70
2018-09-16T17:12:50.108Z,99410.86
2018-09-16T17:15:19.044Z,99408.70
2018-09-16T17:17:47.772Z,99402.39
2018-09-16T17:20:16.533Z,99400.60
2018-09-16T17:22:45.711Z,99397.22
2018-09-16T17:25:15.299Z,99402.75
2018-09-16T17:27:43.980Z,99400.06
2018-09-16T17:30:12.471Z,99402.48
2018-09-16T17:32:43.600Z,99412.25
2018-09-16T17:35:12.969Z,99404.86
2018-09-16T17:37:41.679Z,99407.56
2018-09-16T17:40:10.635Z,99406.92
2018-09-16T17:42:40.800Z,99407.02
2018-09-16T17:45:10.722Z,99413.28
2018-09-16T17:47:39.473Z,99410.73
2018-09-16T17:50:09.428Z,99413.63
2018-09-16T17:52:37.882Z,99418.02
2018-09-16T17:55:06.772Z,99411.42
2018-09-16T17:57:36.211Z,99407.70
2018-09-16T18:00:05.099Z,99408.05
2018-09-16T18:02:38.218Z,99413.77
2018-09-16T18:05:07.652Z,99421.49
2018-09-16T18:07:36.109Z,99420.73
2018-09-16T18:10:05.056Z,99422.42
2018-09-16T18:12:33.500Z,99419.95
2018-09-16T18:15:03.704Z,99421.97
2018-09-16T18:17:33.108Z,99421.06
2018-09-16T18:20:02.125Z,99419.34
2018-09-16T18:22:30.827Z,99424.77
2018-09-16T18:25:01.103Z,99428.48
2018-09-16T18:27:30.268Z,99433.56
2018-09-16T18:29:59.172Z,99440.67
2018-09-16T18:32:28.629Z,99440.88
2018-09-16T18:34:58.132Z,99438.98
2018-09-16T18:37:28.351Z,99444.31
2018-09-16T18:39:57.775Z,99445.06
2018-09-16T18:42:26.307Z,99446.36
2018-09-16T18:44:55.716Z,99443.59
2018-09-16T18:47:24.631Z,99443.67
2018-09-16T18:49:53.405Z,99449.31
2018-09-16T18:52:22.953Z,99456.71
2018-09-16T18:54:52.115Z,99454.02
2018-09-16T18:57:21.611Z,99464.14
2018-09-16T18:59:51.189Z,99458.37
2018-09-16T19:02:21.052Z,99458.56
2018-09-16T19:04:49.496Z,99462.63
2018-09-16T19:07:19.406Z,99461.44
2018-09-16T19:09:48.606Z,99461.48
2018-09-16T19:12:19.146Z,99465.75
2018-09-16T19:14:48.080Z,99465.01
2018-09-16T19:17:16.797Z,99469.43
2018-09-16T19:19:45.526Z,99465.02
2018-09-16T19:22:14.373Z,99462.88
2018-09-16T19:24:43.147Z,99468.85
2018-09-16T19:27:13.200Z,99465.94
2018-09-16T19:29:42.223Z,99465.65
2018-09-16T19:32:11.686Z,99461.13
2018-09-16T19:34:41.037Z,99463.66
2018-09-16T19:37:11.070Z,99466.05
2018-09-16T19:39:39.965Z,99467.97
2018-09-16T19:42:09.498Z,99473.03
2018-09-16T19:44:37.986Z,99478.05
2018-09-16T19:47:07.928Z,99476.22
2018-09-16T19:49:37.130Z,99479.59
2018-09-16T19:52:05.896Z,99478.95
2018-09-16T19:54:36.043Z,99469.63
2018-09-16T19:57:04.543Z,99474.33
2018-09-16T19:59:33.024Z,99476.41
2018-09-16T20:02:02.113Z,99481.42
2018-09-16T20:04:31.283Z,99480.02
2018-09-16T20:07:01.139Z,99478.67
2018-09-16T20:09:30.396Z,99474.98
2018-09-16T20:11:59.484Z,99472.27
2018-09-16T20:14:27.995Z,99471.22
2018-09-16T20:16:57.101Z,99473.15
2018-09-16T20:19:26.317Z,99467.22
2018-09-16T20:21:56.868Z,99460.98
2018-09-16T20:24:25.857Z,99462.02
2018-09-16T20:26:56.619Z,99463.47
2018-09-16T20:29:27.135Z,99462.08
2018-09-16T20:31:58.494Z,99462.38
2018-09-16T20:34:28.171Z,99462.77
2018-09-16T20:37:02.333Z,99453.25
2018-09-16T20:39:37.526Z,99449.52
2018-09-16T20:42:06.577Z,99452.31
2018-09-16T20:44:36.275Z,99450.65
2018-09-16T20:47:06.348Z,99450.82
2018-09-16T20:49:35.207Z,99460.39
2018-09-16T20:52:04.508Z,99453.70
2018-09-16T20:54:33.360Z,99451.05
2018-09-16T20:57:02.303Z,99451.59
2018-09-16T20:59:32.005Z,99451.51
2018-09-16T21:02:00.713Z,99452.55
2018-09-16T21:04:30.391Z,99451.02
2018-09-16T21:06:59.078Z,99448.62
2018-09-16T21:09:27.569Z,99459.57
2018-09-16T21:11:57.941Z,99455.34
2018-09-16T21:14:26.413Z,99447.86
2018-09-16T21:16:57.454Z,99443.00
2018-09-16T21:19:26.525Z,99445.72
2018-09-16T21:21:56.135Z,99444.64
2018-09-16T21:24:25.662Z,99448.58
2018-09-16T21:26:55.315Z,99432.72
2018-09-16T21:29:24.428Z,99438.92
2018-09-16T21:31:53.599Z,99438.80
2018-09-16T21:34:23.134Z,99444.10
2018-09-16T21:36:53.036Z,99443.16
2018-09-16T21:39:21.498Z,99440.36
2018-09-16T21:41:50.827Z,99440.75
2018-09-16T21:44:20.161Z,99448.19
2018-09-16T21:46:49.201Z,99441.77
2018-09-16T21:49:18.290Z,99445.67
2018-09-16T21:51:48.204Z,99439.21
2018-09-16T21:54:17.076Z,99434.62
2018-09-16T21:56:45.660Z,99433.89
2018-09-16T21:59:15.101Z,99437.77
2018-09-16T22:01:44.504Z,99432.77
2018-09-16T22:04:13.863Z,99439.83
2018-09-16T22:06:42.846Z,99432.81
2018-09-16T22:09:11.844Z,99437.39
2018-09-16T22:11:41.566Z,99433.03
2018-09-16T22:14:10.439Z,99431.20
2018-09-16T22:16:39.121Z,99427.45
2018-09-16T22:19:08.490Z,99430.98
2018-09-16T22:21:37.206Z,99436.92
2018-09-16T22:24:09.649Z,99432.90
2018-09-16T22:26:40.987Z,99433.50
2018-09-16T22:29:09.457Z,99437.77
2018-09-16T22:31:39.397Z,99431.23
2018-09-16T22:34:09.408Z,99431.80
2018-09-16T22:36:38.891Z,99438.72
2018-09-16T22:39:09.709Z,99436.06
2018-09-16T22:41:38.432Z,99430.95
2018-09-16T22:44:06.900Z,99439.45
2018-09-16T22:46:35.953Z,99444.05
2018-09-16T22:49:06.145Z,99437.00
2018-09-16T22:51:35.243Z,99440.50
2018-09-16T22:54:05.950Z,99442.03
2018-09-16T22:56:34.557Z,99447.84
2018-09-16T22:59:03.009Z,99453.39
2018-09-16T23:01:31.754Z,99444.84
2018-09-16T23:04:00.475Z,99441.55
2018-09-16T23:06:29.216Z,99429.80
2018-09-16T23:09:05.970Z,99440.84
2018-09-16T23:11:35.000Z,99430.30
2018-09-16T23:14:04.903Z,99425.77
2018-09-16T23:16:33.725Z,99431.45
2018-09-16T23:19:06.800Z,99430.77
2018-09-16T23:21:35.507Z,99433.91
2018-09-16T23:24:05.430Z,99437.69
2018-09-16T23:26:34.619Z,99431.48
2018-09-16T23:29:03.906Z,99428.20
2018-09-16T23:31:33.580Z,99433.53
2018-09-16T23:34:02.010Z,99430.14
2018-09-16T23:36:30.583Z,99431.23
2018-09-16T23:38:59.994Z,99434.99
2018-09-16T23:41:28.478Z,99431.44
2018-09-16T23:43:56.928Z,99430.10
2018-09-16T23:46:26.310Z,99430.06
2018-09-16T23:48:55.455Z,99433.13
2018-09-16T23:51:25.993Z,99426.42
2018-09-16T23:53:54.533Z,99427.91
2018-09-16T23:56:23.232Z,99425.05
2018-09-16T23:58:52.123Z,99424.20
